Flight Track Log - Related Links

Times and Time Zones

All times are in EDT time to prevent confusion due to time zone crossing. See the DLH340 flight status page for this flight to view local times or setup timezone preferences in your user account.

Time Position Orientation Groundspeed Altitude Reporting Facility
EDT Latitude Longitude Course Direction KTS MPH feet Rate Location/Type
Sun 04:31:15 AM 50.0018 8.5446 178° South  Level Estimated
Sun 04:32:15 AM 49.9032 8.5504 178° South  Level Estimated
Sun 04:33:15 AM 49.8046 8.5562 178° South  Level Estimated
Sun 04:34:15 AM 49.7060 8.5620 178° South  Level Estimated
Sun 04:35:15 AM 49.6074 8.5677 178° South  Level Estimated
Sun 04:36:15 AM 49.5088 8.5735 178° South  Level Estimated
Sun 04:37:15 AM 49.4102 8.5792 178° South  Level Estimated
Sun 04:38:15 AM 49.3116 8.5849 178° South  Level Estimated
Sun 04:39:15 AM 49.2130 8.5905 178° South  Level Estimated
Sun 04:40:15 AM 49.1144 8.5962 178° South  Level Estimated
Sun 04:41:15 AM 49.0158 8.6018 178° South  Level Estimated
Sun 04:42:15 AM 48.9172 8.6074 178° South  Level Estimated
Sun 04:43:15 AM 48.8186 8.6130 178° South  Level Estimated
Sun 04:44:15 AM 48.7200 8.6185 178° South  Level Estimated
Sun 04:45:15 AM 48.6214 8.6241 178° South  Level Estimated
Sun 04:46:15 AM 48.5228 8.6296 178° South  Level Estimated
Sun 04:47:15 AM 48.4242 8.6350 178° South  Level Estimated
Sun 04:48:15 AM 48.3256 8.6405 178° South  Level Estimated
Sun 04:49:15 AM 48.2270 8.6460 178° South  Level Estimated
Sun 04:50:15 AM 48.1284 8.6514 178° South  Level Estimated
Sun 04:51:15 AM 48.0298 8.6568 178° South  Level Estimated
Sun 04:52:15 AM 47.9312 8.6622 178° South  Level Estimated
Sun 04:53:15 AM 47.8326 8.6675 178° South  Level Estimated
Sun 04:54:15 AM 47.7340 8.6729 178° South  Level Estimated
Sun 04:55:15 AM 47.6354 8.6782 178° South  Level Estimated
Sun 04:56:15 AM 47.5368 8.6835 178° South  Level Estimated
Sun 04:57:15 AM 47.4382 8.6888 178° South  Level Estimated
Sun 04:58:15 AM 47.3396 8.6940 178° South  Level Estimated
Sun 04:59:15 AM 47.2410 8.6993 178° South  Level Estimated
Sun 05:00:15 AM 47.1424 8.7045 178° South  Level Estimated
Sun 05:01:15 AM 47.0438 8.7097 178° South  Level Estimated
Sun 05:02:15 AM 46.9451 8.7149 178° South  Level Estimated
Sun 05:03:15 AM 46.8465 8.7200 178° South  Level Estimated
Sun 05:04:15 AM 46.7479 8.7252 178° South  Level Estimated
Sun 05:05:15 AM 46.6493 8.7303 178° South  Level Estimated
Sun 05:06:15 AM 46.5507 8.7354 178° South  Level Estimated
Sun 05:07:15 AM 46.4521 8.7405 178° South  Level Estimated
Sun 05:08:15 AM 46.3535 8.7456 178° South  Level Estimated
Sun 05:09:15 AM 46.2549 8.7506 178° South  Level Estimated
Sun 05:10:15 AM 46.1563 8.7557 178° South  Level Estimated
Sun 05:11:15 AM 46.0577 8.7607 178° South  Level Estimated
Sun 05:12:15 AM 45.9590 8.7657 178° South  Level Estimated
Sun 05:13:15 AM 45.8604 8.7707 178° South  Level Estimated
Sun 05:14:15 AM 45.7618 8.7756 178° South  Level Estimated
Sun 05:15:15 AM 45.6632 8.7806 178° South  Level Estimated
Sun 05:16:15 AM 45.5646 8.7855 178° South  Level Estimated
Sun 05:17:15 AM 45.4660 8.7904 178° South  Level Estimated
Sun 05:18:15 AM 45.3674 8.7953 178° South  Level Estimated
Sun 05:19:15 AM 45.2688 8.8002 178° South  Level Estimated
Sun 05:20:15 AM 45.1702 8.8050 178° South  Level Estimated
Sun 05:21:15 AM 45.0716 8.8099 178° South  Level Estimated
Sun 05:22:15 AM 44.9809 8.8143 178° South  Level Estimated
Sun 05:23:15 AM 44.8902 8.8188 178° South  Level Estimated
Sun 05:24:15 AM 44.7996 8.8232 178° South  Level Estimated
Sun 05:25:15 AM 44.7089 8.8276 178° South  Level Estimated
Sun 05:26:15 AM 44.6183 8.8320 178° South  Level Estimated
Sun 05:27:15 AM 44.5276 8.8363 178° South  Level Estimated
Sun 05:28:15 AM 44.4369 8.8407 178° South  Level Estimated
Sun 05:29:15 AM 44.3463 8.8450 358° North  Level Estimated
Sun 05:30:15 AM 44.4369 8.8407 178° South  Level Estimated
Sun 05:31:15 AM 44.3463 8.8450 358° North  Level Estimated
Sun 05:32:15 AM 44.4369 8.8407 178° South  Level Estimated
Sun 05:33:15 AM 44.3463 8.8450 358° North  Level Estimated
Sun 05:34:15 AM 44.4369 8.8407 178° South  Level Estimated
Sun 05:35:15 AM 44.3463 8.8450 358° North  Level Estimated
Sun 05:36:15 AM 44.4369 8.8407 178° South  Level Estimated
Sun 05:37:15 AM 44.3463 8.8450 358° North  Level Estimated
Sun 05:38:15 AM 44.4369 8.8407 178° South  Level Estimated
Sun 05:39:15 AM 44.3463 8.8450 358° North  Level Estimated
Sun 05:40:15 AM 44.4369 8.8407 178° South  Level Estimated
Sun 05:41:15 AM 44.3463 8.8450 358° North  Level Estimated
Sun 05:42:15 AM 44.4369 8.8407 178° South  Level Estimated
Sun 05:43:15 AM 44.3463 8.8450 358° North  Level Estimated
Sun 05:44:15 AM 44.4369 8.8407 178° South  Level Estimated
Sun 05:45:15 AM 44.3463 8.8450 358° North  Level Estimated
Sun 05:46:15 AM 44.4369 8.8407 178° South  Level Estimated
Sun 05:47:15 AM 44.3463 8.8450 358° North  Level Estimated
Sun 05:48:15 AM 44.4369 8.8407 358° North  Level Estimated

Login

Don't have an account? Register now (free) for customized features, flight alerts, and more!